createdAt,value
2023-08-29T00:00:12.927Z,12.30
2023-08-29T00:01:14.805Z,11.85
2023-08-29T00:02:16.691Z,12.67
2023-08-29T00:03:18.620Z,11.87
2023-08-29T00:04:20.455Z,11.52
2023-08-29T00:05:22.379Z,12.22
2023-08-29T00:06:24.326Z,12.06
2023-08-29T00:07:26.167Z,11.95
2023-08-29T00:08:28.051Z,12.44
2023-08-29T00:09:29.889Z,12.30
2023-08-29T00:10:31.850Z,11.66
2023-08-29T00:11:33.690Z,12.13
2023-08-29T00:12:35.647Z,12.02
2023-08-29T00:13:37.513Z,12.34
2023-08-29T00:14:39.241Z,12.54
2023-08-29T00:15:41.106Z,12.40
2023-08-29T00:16:43.015Z,12.11
2023-08-29T00:17:44.907Z,12.13
2023-08-29T00:18:46.912Z,12.23
2023-08-29T00:19:48.769Z,12.27
2023-08-29T00:20:50.606Z,12.05
2023-08-29T00:21:52.455Z,12.45
2023-08-29T00:22:54.360Z,13.17
2023-08-29T00:23:56.242Z,12.94
2023-08-29T00:24:58.099Z,12.44
2023-08-29T00:25:59.957Z,12.44
2023-08-29T00:27:01.784Z,12.54
2023-08-29T00:28:03.922Z,12.66
2023-08-29T00:29:06.071Z,12.27
2023-08-29T00:30:08.229Z,12.87
2023-08-29T00:31:10.064Z,12.49
2023-08-29T00:32:11.901Z,12.57
2023-08-29T00:33:13.753Z,12.68
2023-08-29T00:34:15.648Z,12.49
2023-08-29T00:35:17.488Z,12.64
2023-08-29T00:36:19.430Z,13.23
2023-08-29T00:37:21.285Z,12.93
2023-08-29T00:38:23.108Z,12.89
2023-08-29T00:39:24.991Z,12.64
2023-08-29T00:40:27.355Z,13.07
2023-08-29T00:41:29.180Z,12.89
2023-08-29T00:42:31.039Z,13.66
2023-08-29T00:43:32.900Z,12.90
2023-08-29T00:44:34.756Z,13.31
2023-08-29T00:45:36.664Z,12.74
2023-08-29T00:46:38.754Z,12.73
2023-08-29T00:47:40.647Z,13.44
2023-08-29T00:48:42.515Z,13.37
2023-08-29T00:49:44.392Z,12.94
2023-08-29T00:50:46.334Z,13.77
2023-08-29T00:51:48.168Z,13.45
2023-08-29T00:52:50.004Z,13.43
2023-08-29T00:53:51.852Z,13.44
2023-08-29T00:54:53.733Z,13.23
2023-08-29T00:55:55.463Z,13.66
2023-08-29T00:56:57.394Z,13.74
2023-08-29T00:57:59.236Z,14.04
2023-08-29T00:59:01.086Z,13.05
2023-08-29T01:00:02.964Z,13.50
2023-08-29T01:01:04.808Z,13.85
2023-08-29T01:02:06.661Z,13.56
2023-08-29T01:03:08.540Z,13.20
2023-08-29T01:04:10.422Z,13.83
2023-08-29T01:05:12.282Z,14.15
2023-08-29T01:06:14.522Z,13.45
2023-08-29T01:07:16.357Z,13.07
2023-08-29T01:08:18.092Z,12.98
2023-08-29T01:09:19.984Z,13.21
2023-08-29T01:10:21.829Z,13.40
2023-08-29T01:11:23.658Z,13.56
2023-08-29T01:12:25.478Z,13.64
2023-08-29T01:13:27.390Z,14.16
2023-08-29T01:14:29.256Z,13.33
2023-08-29T01:15:31.123Z,12.79
2023-08-29T01:16:32.942Z,12.91
2023-08-29T01:17:34.864Z,13.30
2023-08-29T01:18:36.749Z,13.29
2023-08-29T01:19:38.589Z,13.01
2023-08-29T01:20:40.587Z,12.89
2023-08-29T01:21:42.429Z,13.37
2023-08-29T01:22:44.150Z,14.09
2023-08-29T01:23:45.978Z,13.29
2023-08-29T01:24:47.838Z,13.76
2023-08-29T01:25:49.608Z,14.18
2023-08-29T01:26:51.557Z,13.66
2023-08-29T01:27:53.381Z,13.84
2023-08-29T01:28:55.239Z,13.23
2023-08-29T01:29:57.072Z,13.68
2023-08-29T01:30:58.999Z,14.15
2023-08-29T01:32:00.821Z,14.27
2023-08-29T01:33:02.695Z,13.83
2023-08-29T01:34:04.487Z,13.51
2023-08-29T01:35:06.213Z,13.56
2023-08-29T01:36:08.103Z,12.97
2023-08-29T01:37:09.953Z,13.87
2023-08-29T01:38:11.785Z,14.23
2023-08-29T01:39:13.714Z,13.97
2023-08-29T01:40:15.975Z,14.47
2023-08-29T01:41:17.949Z,13.42
2023-08-29T01:42:19.794Z,14.01
2023-08-29T01:43:21.751Z,14.49
2023-08-29T01:44:23.594Z,14.27
2023-08-29T01:45:25.522Z,14.04
2023-08-29T01:46:27.541Z,13.79
2023-08-29T01:47:29.388Z,13.92
2023-08-29T01:48:31.174Z,14.53
2023-08-29T01:49:33.227Z,13.77
2023-08-29T01:50:35.163Z,13.58
2023-08-29T01:51:37.054Z,13.89
2023-08-29T01:52:38.874Z,14.29
2023-08-29T01:53:40.718Z,14.43
2023-08-29T01:54:42.555Z,14.47
2023-08-29T01:55:44.388Z,14.29
2023-08-29T01:56:46.257Z,14.37
2023-08-29T01:57:48.101Z,14.93
2023-08-29T01:58:49.939Z,14.25
2023-08-29T01:59:51.790Z,13.98
2023-08-29T02:00:53.734Z,14.19
2023-08-29T02:01:55.707Z,15.04
2023-08-29T02:02:57.565Z,14.86
2023-08-29T02:03:59.436Z,13.91
2023-08-29T02:05:01.232Z,14.56
2023-08-29T02:06:03.105Z,13.89
2023-08-29T02:07:04.966Z,14.31
2023-08-29T02:08:07.084Z,14.98
2023-08-29T02:09:09.122Z,15.27
2023-08-29T02:10:11.235Z,15.08
2023-08-29T02:11:13.066Z,14.95
2023-08-29T02:12:14.942Z,15.37
2023-08-29T02:13:16.762Z,15.03
2023-08-29T02:14:18.580Z,14.89
2023-08-29T02:15:20.428Z,15.55
2023-08-29T02:16:22.501Z,15.11
2023-08-29T02:17:24.350Z,15.37
2023-08-29T02:18:26.168Z,16.18
2023-08-29T02:19:28.013Z,19.55
2023-08-29T02:20:29.842Z,17.47
2023-08-29T02:21:31.667Z,16.94
2023-08-29T02:22:33.524Z,15.86
2023-08-29T02:23:35.561Z,16.02
2023-08-29T02:24:37.396Z,16.84
2023-08-29T02:25:39.224Z,16.73
2023-08-29T02:26:41.071Z,16.75
2023-08-29T02:27:42.915Z,17.06
2023-08-29T02:28:44.810Z,17.21
2023-08-29T02:29:46.660Z,16.86
2023-08-29T02:30:48.517Z,17.32
2023-08-29T02:31:50.316Z,17.08
2023-08-29T02:32:52.221Z,17.49
2023-08-29T02:33:54.016Z,16.79
2023-08-29T02:34:55.852Z,15.83
2023-08-29T02:35:57.679Z,17.85
2023-08-29T02:36:59.625Z,16.97
2023-08-29T02:38:02.739Z,17.19
2023-08-29T02:39:05.020Z,17.48
2023-08-29T02:40:06.944Z,17.26
2023-08-29T02:41:08.779Z,17.88
2023-08-29T02:42:10.613Z,18.11
2023-08-29T02:43:12.466Z,17.43
2023-08-29T02:44:14.284Z,17.91
2023-08-29T02:45:16.116Z,18.41
2023-08-29T02:46:18.294Z,17.60
2023-08-29T02:47:20.172Z,18.62
2023-08-29T02:48:22.025Z,17.79
2023-08-29T02:49:23.873Z,17.22
2023-08-29T02:50:25.721Z,18.19
2023-08-29T02:51:27.543Z,18.75
2023-08-29T02:52:29.369Z,17.81
2023-08-29T02:53:31.225Z,18.08
2023-08-29T02:54:32.980Z,17.77
2023-08-29T02:55:34.827Z,19.96
2023-08-29T02:56:36.665Z,18.78
2023-08-29T02:57:38.489Z,18.71
2023-08-29T02:58:40.353Z,17.95
2023-08-29T02:59:42.105Z,19.11
2023-08-29T03:00:43.977Z,18.54
2023-08-29T03:01:45.791Z,17.33
2023-08-29T03:02:47.615Z,18.61
2023-08-29T03:03:49.631Z,17.33
2023-08-29T03:04:51.464Z,18.59
2023-08-29T03:05:53.300Z,19.07
2023-08-29T03:06:55.227Z,19.23
2023-08-29T03:07:57.105Z,18.17
2023-08-29T03:08:58.976Z,17.99
2023-08-29T03:10:00.827Z,18.39
2023-08-29T03:11:02.734Z,19.15
2023-08-29T03:12:04.502Z,19.09
2023-08-29T03:13:06.356Z,19.70
2023-08-29T03:14:08.304Z,19.83
2023-08-29T03:15:10.157Z,18.85
2023-08-29T03:16:12.495Z,19.01
2023-08-29T03:17:14.427Z,19.01
2023-08-29T03:18:16.262Z,18.63
2023-08-29T03:19:18.206Z,18.96
2023-08-29T03:20:20.108Z,19.05
2023-08-29T03:21:22.006Z,18.86
2023-08-29T03:22:23.760Z,19.51
2023-08-29T03:23:25.648Z,18.69
2023-08-29T03:24:27.580Z,19.23
2023-08-29T03:25:29.431Z,19.14
2023-08-29T03:26:31.277Z,18.71
2023-08-29T03:27:33.080Z,18.68
2023-08-29T03:28:34.980Z,18.93
2023-08-29T03:29:36.808Z,18.59
2023-08-29T03:30:38.718Z,18.94
2023-08-29T03:31:40.549Z,19.13
2023-08-29T03:32:42.436Z,19.53
2023-08-29T03:33:44.293Z,18.97
2023-08-29T03:34:46.149Z,18.49
2023-08-29T03:35:47.978Z,18.70
2023-08-29T03:36:49.915Z,19.33
2023-08-29T03:37:51.642Z,19.06
2023-08-29T03:38:53.458Z,18.75
2023-08-29T03:39:55.320Z,18.90
2023-08-29T03:40:57.147Z,18.88
2023-08-29T03:41:58.982Z,18.59
2023-08-29T03:43:00.811Z,18.16
2023-08-29T03:44:02.637Z,18.77
2023-08-29T03:45:04.492Z,17.85
2023-08-29T03:46:06.522Z,17.96
2023-08-29T03:47:08.375Z,17.61
2023-08-29T03:48:19.532Z,17.86
2023-08-29T03:49:13.736Z,18.52
2023-08-29T03:50:15.702Z,18.79
2023-08-29T03:51:17.527Z,17.93
2023-08-29T03:52:19.249Z,17.83
2023-08-29T03:53:21.071Z,18.23
2023-08-29T03:54:22.893Z,18.85
2023-08-29T03:55:24.770Z,19.44
2023-08-29T03:56:26.619Z,18.89
2023-08-29T03:57:28.522Z,17.92
2023-08-29T03:58:30.373Z,17.72
2023-08-29T03:59:32.204Z,18.03
2023-08-29T04:00:34.104Z,18.45
2023-08-29T04:01:35.922Z,18.09
2023-08-29T04:02:37.756Z,17.21
2023-08-29T04:03:39.747Z,18.25
2023-08-29T04:04:41.988Z,17.99
2023-08-29T04:05:44.102Z,17.01
2023-08-29T04:06:46.056Z,17.99
2023-08-29T04:07:47.888Z,17.95
2023-08-29T04:08:49.726Z,17.76
2023-08-29T04:09:51.513Z,18.52
2023-08-29T04:10:53.323Z,17.52
2023-08-29T04:11:55.144Z,17.42
2023-08-29T04:12:56.966Z,17.46
2023-08-29T04:13:58.808Z,17.33
2023-08-29T04:15:00.649Z,18.49
2023-08-29T04:16:03.070Z,19.25
2023-08-29T04:17:04.939Z,18.30
2023-08-29T04:18:07.023Z,19.91
2023-08-29T04:19:09.133Z,20.04
2023-08-29T04:20:11.567Z,19.13
2023-08-29T04:21:13.471Z,20.18
2023-08-29T04:22:15.304Z,19.69
2023-08-29T04:23:17.135Z,18.55
2023-08-29T04:24:18.990Z,18.57
2023-08-29T04:25:20.847Z,19.66
2023-08-29T04:26:22.728Z,18.25
2023-08-29T04:27:24.548Z,19.89
2023-08-29T04:28:26.409Z,19.71
2023-08-29T04:29:28.140Z,18.94
2023-08-29T04:30:29.962Z,18.51
2023-08-29T04:31:31.895Z,18.55
2023-08-29T04:32:33.788Z,19.21
2023-08-29T04:33:35.638Z,18.30
2023-08-29T04:34:37.475Z,18.92
2023-08-29T04:35:39.181Z,19.15
2023-08-29T04:36:41.196Z,18.47
2023-08-29T04:37:43.047Z,18.09
2023-08-29T04:38:44.787Z,18.54
2023-08-29T04:39:46.618Z,18.01
2023-08-29T04:40:48.442Z,18.37
2023-08-29T04:41:50.305Z,17.99
2023-08-29T04:42:52.048Z,18.22
2023-08-29T04:43:53.903Z,17.05
2023-08-29T04:44:55.635Z,17.16
2023-08-29T04:45:57.576Z,17.09
2023-08-29T04:46:59.554Z,17.44
2023-08-29T04:48:01.501Z,17.86
2023-08-29T04:49:03.351Z,17.19
2023-08-29T04:50:05.188Z,17.83
2023-08-29T04:51:07.044Z,18.08
2023-08-29T04:52:08.913Z,17.10
2023-08-29T04:53:10.802Z,16.69
2023-08-29T04:54:12.626Z,17.58
2023-08-29T04:55:14.474Z,17.73
2023-08-29T04:56:16.317Z,17.39
2023-08-29T04:57:18.201Z,17.58
2023-08-29T04:58:20.158Z,17.82
2023-08-29T04:59:21.994Z,18.41
2023-08-29T05:00:23.833Z,18.56
2023-08-29T05:01:25.721Z,17.78
2023-08-29T05:02:27.678Z,18.20
2023-08-29T05:03:29.419Z,17.85
2023-08-29T05:04:31.255Z,18.99
2023-08-29T05:05:33.106Z,17.92
2023-08-29T05:06:34.935Z,22.50
2023-08-29T05:07:36.927Z,19.39
2023-08-29T05:08:38.786Z,18.29
2023-08-29T05:09:40.619Z,18.58
2023-08-29T05:10:42.481Z,19.66
2023-08-29T05:11:44.310Z,19.25
2023-08-29T05:12:46.183Z,18.43
2023-08-29T05:13:48.013Z,18.21
2023-08-29T05:14:49.866Z,18.03
2023-08-29T05:15:51.759Z,17.90
2023-08-29T05:16:53.560Z,18.70
2023-08-29T05:17:55.462Z,18.56
2023-08-29T05:18:57.166Z,18.47
2023-08-29T05:19:59.009Z,18.59
2023-08-29T05:21:00.965Z,18.63
2023-08-29T05:22:02.691Z,19.10
2023-08-29T05:23:04.553Z,18.67
2023-08-29T05:24:06.288Z,19.01
2023-08-29T05:25:08.056Z,18.77
2023-08-29T05:26:13.099Z,18.42
2023-08-29T05:27:14.044Z,18.99
2023-08-29T05:28:15.918Z,18.27
2023-08-29T05:29:17.804Z,18.66
2023-08-29T05:30:19.736Z,18.75
2023-08-29T05:31:21.600Z,18.31
2023-08-29T05:32:25.712Z,17.67
2023-08-29T05:33:27.138Z,18.70
2023-08-29T05:34:28.978Z,17.82
2023-08-29T05:35:30.814Z,17.65
2023-08-29T05:36:32.676Z,18.41
2023-08-29T05:37:34.514Z,18.56
2023-08-29T05:38:36.281Z,17.91
2023-08-29T05:39:38.124Z,17.62
2023-08-29T05:40:39.947Z,18.20
2023-08-29T05:41:41.795Z,17.73
2023-08-29T05:42:43.653Z,17.76
2023-08-29T05:43:45.598Z,17.29
2023-08-29T05:44:47.360Z,17.29
2023-08-29T05:45:49.218Z,16.73
2023-08-29T05:46:51.177Z,17.16
2023-08-29T05:47:52.976Z,17.40
2023-08-29T05:48:54.856Z,16.52
2023-08-29T05:49:56.702Z,16.67
2023-08-29T05:50:58.557Z,16.80
2023-08-29T05:52:00.408Z,16.59
2023-08-29T05:53:02.267Z,16.19
2023-08-29T05:54:04.254Z,16.31
2023-08-29T05:55:06.083Z,15.81
2023-08-29T05:56:08.625Z,17.27
2023-08-29T05:57:10.471Z,16.12
2023-08-29T05:58:12.307Z,17.03
2023-08-29T05:59:14.193Z,16.53
2023-08-29T06:00:16.655Z,16.30
2023-08-29T06:01:18.565Z,15.46
2023-08-29T06:02:20.452Z,16.48
2023-08-29T06:03:23.439Z,15.53
2023-08-29T06:04:25.597Z,14.43
2023-08-29T06:05:27.438Z,14.93
2023-08-29T06:06:29.268Z,15.13
2023-08-29T06:07:31.023Z,15.05
2023-08-29T06:08:32.871Z,16.01
2023-08-29T06:09:34.737Z,15.49
2023-08-29T06:10:36.564Z,14.79
2023-08-29T06:11:38.330Z,15.62
2023-08-29T06:12:40.181Z,15.23
2023-08-29T06:13:42.007Z,15.17
2023-08-29T06:14:43.875Z,14.46
2023-08-29T06:15:45.708Z,14.77
2023-08-29T06:16:47.588Z,15.43
2023-08-29T06:17:49.318Z,15.31
2023-08-29T06:18:51.146Z,15.47
2023-08-29T06:19:53.011Z,14.83
2023-08-29T06:20:54.881Z,15.33
2023-08-29T06:21:56.723Z,14.17
2023-08-29T06:22:58.561Z,14.66
2023-08-29T06:24:00.451Z,14.15
2023-08-29T06:25:02.284Z,14.45
2023-08-29T06:26:04.134Z,14.78
2023-08-29T06:27:05.970Z,14.29
2023-08-29T06:28:08.021Z,13.63
2023-08-29T06:29:10.055Z,15.15
2023-08-29T06:30:11.921Z,13.66
2023-08-29T06:31:13.797Z,16.64
2023-08-29T06:32:15.630Z,13.83
2023-08-29T06:33:17.464Z,13.34
2023-08-29T06:34:19.304Z,13.78
2023-08-29T06:35:21.169Z,13.85
2023-08-29T06:36:23.014Z,13.29
2023-08-29T06:37:24.841Z,12.86
2023-08-29T06:38:26.662Z,13.09
2023-08-29T06:39:28.592Z,13.95
2023-08-29T06:40:30.744Z,12.72
2023-08-29T06:41:32.578Z,13.85
2023-08-29T06:42:34.525Z,13.68
2023-08-29T06:43:36.425Z,13.48
2023-08-29T06:44:38.309Z,14.09
2023-08-29T06:45:40.281Z,13.52
2023-08-29T06:46:42.125Z,13.24
2023-08-29T06:47:44.004Z,12.82
2023-08-29T06:48:45.833Z,13.18
2023-08-29T06:49:47.656Z,13.00
2023-08-29T06:50:49.523Z,13.65
2023-08-29T06:51:51.377Z,12.79
2023-08-29T06:52:53.228Z,13.64
2023-08-29T06:53:55.078Z,13.22
2023-08-29T06:54:56.886Z,12.67
2023-08-29T06:55:58.776Z,12.76
2023-08-29T06:57:00.654Z,13.01
2023-08-29T06:58:02.457Z,12.75
2023-08-29T06:59:04.289Z,12.86
2023-08-29T07:00:06.644Z,12.73
2023-08-29T07:01:08.583Z,15.18
2023-08-29T07:02:10.478Z,14.13
2023-08-29T07:03:12.434Z,13.19
2023-08-29T07:04:14.367Z,13.21
2023-08-29T07:05:16.225Z,13.40
2023-08-29T07:06:18.076Z,12.00
2023-08-29T07:07:19.903Z,13.32
2023-08-29T07:08:21.727Z,11.98
2023-08-29T07:09:23.571Z,13.13
2023-08-29T07:10:25.416Z,12.21
2023-08-29T07:11:27.284Z,11.82
2023-08-29T07:12:29.110Z,12.85
2023-08-29T07:13:30.954Z,12.73
2023-08-29T07:14:32.788Z,12.77
2023-08-29T07:15:34.653Z,12.52
2023-08-29T07:16:36.624Z,12.33
2023-08-29T07:17:38.490Z,11.56
2023-08-29T07:18:40.310Z,12.05
2023-08-29T07:19:42.153Z,12.31
2023-08-29T07:20:44.351Z,11.72
2023-08-29T07:21:46.243Z,12.40
2023-08-29T07:22:48.199Z,12.28
2023-08-29T07:23:50.024Z,11.79
2023-08-29T07:24:51.867Z,12.68
2023-08-29T07:25:53.905Z,13.29
2023-08-29T07:26:55.891Z,13.54
2023-08-29T07:27:57.769Z,12.95
2023-08-29T07:28:59.626Z,12.75
2023-08-29T07:30:01.569Z,11.86
2023-08-29T07:31:03.444Z,11.80
2023-08-29T07:32:05.388Z,11.68
2023-08-29T07:33:07.244Z,13.17
2023-08-29T07:34:09.843Z,13.38
2023-08-29T07:35:11.723Z,13.24
2023-08-29T07:36:13.861Z,13.02
2023-08-29T07:37:15.734Z,14.53
2023-08-29T07:38:18.676Z,15.67
2023-08-29T07:39:20.572Z,11.72
2023-08-29T07:40:22.388Z,12.24
2023-08-29T07:41:24.248Z,12.27
2023-08-29T07:42:26.118Z,12.03
2023-08-29T07:43:27.979Z,12.61
2023-08-29T07:44:29.786Z,12.20
2023-08-29T07:45:31.618Z,12.51
2023-08-29T07:46:33.576Z,12.06
2023-08-29T07:47:35.501Z,12.63
2023-08-29T07:48:37.356Z,11.94
2023-08-29T07:49:39.199Z,11.91
2023-08-29T07:50:41.027Z,11.60
2023-08-29T07:51:42.846Z,12.45
2023-08-29T07:52:44.726Z,11.59
2023-08-29T07:53:46.724Z,12.34
2023-08-29T07:54:48.518Z,11.94
2023-08-29T07:55:50.356Z,11.48
2023-08-29T07:56:52.235Z,11.74
2023-08-29T07:57:54.282Z,11.39
2023-08-29T07:58:56.145Z,11.43
2023-08-29T07:59:58.185Z,11.56
2023-08-29T08:01:00.519Z,12.30
2023-08-29T08:02:02.549Z,12.49
2023-08-29T08:03:04.640Z,11.60
2023-08-29T08:04:06.566Z,11.55
2023-08-29T08:05:08.371Z,12.44
2023-08-29T08:06:10.519Z,11.90
2023-08-29T08:07:12.353Z,11.88
2023-08-29T08:08:14.233Z,11.70
2023-08-29T08:09:16.073Z,11.72
2023-08-29T08:10:17.934Z,12.00
2023-08-29T08:11:19.758Z,10.31
2023-08-29T08:12:21.603Z,10.83
2023-08-29T08:13:23.381Z,10.94
2023-08-29T08:14:25.209Z,11.31
2023-08-29T08:15:27.043Z,10.79
2023-08-29T08:16:28.930Z,11.03
2023-08-29T08:17:30.865Z,10.94
2023-08-29T08:18:32.702Z,11.33
2023-08-29T08:19:34.534Z,10.59
2023-08-29T08:20:36.380Z,10.43
2023-08-29T08:21:38.336Z,10.02
2023-08-29T08:22:40.167Z,9.73
2023-08-29T08:23:41.934Z,9.81
2023-08-29T08:24:43.689Z,10.15
2023-08-29T08:25:45.509Z,10.10
2023-08-29T08:26:47.350Z,10.05
2023-08-29T08:27:49.178Z,9.48
2023-08-29T08:28:51.047Z,9.76
2023-08-29T08:29:52.884Z,10.03
2023-08-29T08:30:54.728Z,10.69
2023-08-29T08:31:56.576Z,9.95
2023-08-29T08:32:58.375Z,10.00
2023-08-29T08:34:00.242Z,9.41
2023-08-29T08:35:02.085Z,9.79
2023-08-29T08:36:03.931Z,10.00
2023-08-29T08:37:05.756Z,9.04
2023-08-29T08:38:07.671Z,9.89
2023-08-29T08:39:09.902Z,9.06
2023-08-29T08:40:12.044Z,9.76
2023-08-29T08:41:13.966Z,9.64
2023-08-29T08:42:16.501Z,14.61
2023-08-29T08:43:18.372Z,9.86
2023-08-29T08:44:20.326Z,9.32
2023-08-29T08:45:22.235Z,11.52
2023-08-29T08:46:24.172Z,10.39
2023-08-29T08:47:26.104Z,10.03
2023-08-29T08:48:27.907Z,9.27
2023-08-29T08:49:29.826Z,8.88
2023-08-29T08:50:31.808Z,9.18
2023-08-29T08:51:33.636Z,8.74
2023-08-29T08:52:35.473Z,9.44
2023-08-29T08:53:37.329Z,8.56
2023-08-29T08:54:39.241Z,8.87
2023-08-29T08:55:41.089Z,9.64
2023-08-29T08:56:43.036Z,8.69
2023-08-29T08:57:44.789Z,7.77
2023-08-29T08:58:46.628Z,8.15
2023-08-29T08:59:48.500Z,8.75
2023-08-29T09:00:50.448Z,8.98
2023-08-29T09:01:52.312Z,8.34
2023-08-29T09:02:54.250Z,8.10
2023-08-29T09:03:56.105Z,8.08
2023-08-29T09:04:57.849Z,7.77
2023-08-29T09:05:59.696Z,7.80
2023-08-29T09:07:01.540Z,7.96
2023-08-29T09:08:03.318Z,7.62
2023-08-29T09:09:05.142Z,7.63
2023-08-29T09:10:07.146Z,7.29
2023-08-29T09:11:09.015Z,7.98
2023-08-29T09:12:10.864Z,8.35
2023-08-29T09:13:12.719Z,8.36
2023-08-29T09:14:14.577Z,7.45
2023-08-29T09:15:16.439Z,7.72
2023-08-29T09:16:18.347Z,7.53
2023-08-29T09:17:20.127Z,8.11
2023-08-29T09:18:21.891Z,7.51
2023-08-29T09:19:23.733Z,7.85
2023-08-29T09:20:25.607Z,7.60
2023-08-29T09:21:27.444Z,8.17
2023-08-29T09:22:29.318Z,8.30
2023-08-29T09:23:31.150Z,7.49
2023-08-29T09:24:32.981Z,8.31
2023-08-29T09:25:34.856Z,7.22
2023-08-29T09:26:36.823Z,7.21
2023-08-29T09:27:38.704Z,8.27
2023-08-29T09:28:40.545Z,8.08
2023-08-29T09:29:42.378Z,8.56
2023-08-29T09:30:44.264Z,7.81
2023-08-29T09:31:46.136Z,7.89
2023-08-29T09:32:48.002Z,8.50
2023-08-29T09:33:49.804Z,8.52
2023-08-29T09:34:51.663Z,8.75
2023-08-29T09:35:53.551Z,7.74
2023-08-29T09:36:55.612Z,8.08
2023-08-29T09:37:57.465Z,8.65
2023-08-29T09:38:59.202Z,7.60
2023-08-29T09:40:01.033Z,7.66
2023-08-29T09:41:02.940Z,7.58
2023-08-29T09:42:04.800Z,7.08
2023-08-29T09:43:06.607Z,6.77
2023-08-29T09:44:08.487Z,7.27
2023-08-29T09:45:10.222Z,10.55
2023-08-29T09:46:13.061Z,7.42
2023-08-29T09:47:14.860Z,6.58
2023-08-29T09:48:16.761Z,6.49
2023-08-29T09:49:18.575Z,6.28
2023-08-29T09:50:20.417Z,6.45
2023-08-29T09:51:22.285Z,6.98
2023-08-29T09:52:25.332Z,6.61
2023-08-29T09:53:27.237Z,7.22
2023-08-29T09:54:29.083Z,6.70
2023-08-29T09:55:30.839Z,6.41
2023-08-29T09:56:32.733Z,6.42
2023-08-29T09:57:34.574Z,6.67
2023-08-29T09:58:36.321Z,6.61
2023-08-29T09:59:38.181Z,6.93
2023-08-29T10:00:40.231Z,6.64
2023-08-29T10:01:42.167Z,6.34
2023-08-29T10:02:44.159Z,7.42
2023-08-29T10:03:46.095Z,6.86
2023-08-29T10:04:47.963Z,6.84
2023-08-29T10:05:49.841Z,7.83
2023-08-29T10:06:51.748Z,7.49
2023-08-29T10:07:53.600Z,7.10
2023-08-29T10:08:55.815Z,7.11
2023-08-29T10:09:58.309Z,7.25
2023-08-29T10:11:00.639Z,6.77
2023-08-29T10:12:02.624Z,6.75
2023-08-29T10:13:04.473Z,7.23
2023-08-29T10:14:06.333Z,6.92
2023-08-29T10:15:08.161Z,7.19
2023-08-29T10:16:10.327Z,7.63
2023-08-29T10:17:25.423Z,6.83
2023-08-29T10:18:15.800Z,6.79
2023-08-29T10:19:19.074Z,6.37
2023-08-29T10:20:21.012Z,6.93
2023-08-29T10:21:22.770Z,6.29
2023-08-29T10:22:24.676Z,6.92
2023-08-29T10:23:26.588Z,6.64
2023-08-29T10:24:28.369Z,6.70
2023-08-29T10:25:30.252Z,7.31
2023-08-29T10:26:32.239Z,7.02
2023-08-29T10:27:34.267Z,7.04
2023-08-29T10:28:36.081Z,6.78
2023-08-29T10:29:37.984Z,6.88
2023-08-29T10:30:39.819Z,7.57
2023-08-29T10:31:41.644Z,6.49
2023-08-29T10:32:43.596Z,7.26
2023-08-29T10:33:45.665Z,6.74
2023-08-29T10:34:47.521Z,6.89
2023-08-29T10:35:49.456Z,6.52
2023-08-29T10:36:51.460Z,6.57
2023-08-29T10:37:53.579Z,6.74
2023-08-29T10:38:55.610Z,6.80
2023-08-29T10:39:57.644Z,7.43
2023-08-29T10:40:59.756Z,6.88
2023-08-29T10:42:01.859Z,6.96
2023-08-29T10:43:03.987Z,6.79
2023-08-29T10:44:06.077Z,6.82
2023-08-29T10:45:07.925Z,6.59
2023-08-29T10:46:10.656Z,6.11
2023-08-29T10:47:12.800Z,6.29
2023-08-29T10:48:14.829Z,6.41
2023-08-29T10:49:16.932Z,6.19
2023-08-29T10:50:19.120Z,6.49
2023-08-29T10:51:21.097Z,6.95
2023-08-29T10:52:23.049Z,6.61
2023-08-29T10:53:24.932Z,6.58
2023-08-29T10:54:26.824Z,6.93
2023-08-29T10:55:28.696Z,6.50
2023-08-29T10:56:30.675Z,6.34
2023-08-29T10:57:32.472Z,6.48
2023-08-29T10:58:34.388Z,6.52
2023-08-29T10:59:36.114Z,5.95
2023-08-29T11:00:38.007Z,6.67
2023-08-29T11:01:39.918Z,6.33
2023-08-29T11:02:41.794Z,6.24
2023-08-29T11:03:43.742Z,5.84
2023-08-29T11:04:55.973Z,5.99
2023-08-29T11:05:49.176Z,5.88
2023-08-29T11:06:50.967Z,6.26
2023-08-29T11:07:52.828Z,6.11
2023-08-29T11:08:56.117Z,6.45
2023-08-29T11:09:58.241Z,6.29
2023-08-29T11:11:00.157Z,6.89
2023-08-29T11:12:02.000Z,6.22
2023-08-29T11:13:03.748Z,9.01
2023-08-29T11:14:05.632Z,6.87
2023-08-29T11:15:09.419Z,6.53
2023-08-29T11:16:11.848Z,6.01
2023-08-29T11:17:13.666Z,7.12
2023-08-29T11:18:15.520Z,6.29
2023-08-29T11:19:17.419Z,6.47
2023-08-29T11:20:19.659Z,6.19
2023-08-29T11:21:21.509Z,6.17
2023-08-29T11:22:23.357Z,6.06
2023-08-29T11:23:25.194Z,6.83
2023-08-29T11:24:27.083Z,6.35
2023-08-29T11:25:28.952Z,5.83
2023-08-29T11:26:31.317Z,5.80
2023-08-29T11:27:33.223Z,5.49
2023-08-29T11:28:35.054Z,5.92
2023-08-29T11:29:37.002Z,5.95
2023-08-29T11:30:43.710Z,5.59
2023-08-29T11:31:42.558Z,5.91
2023-08-29T11:32:44.378Z,5.99
2023-08-29T11:33:46.256Z,6.04
2023-08-29T11:34:48.020Z,6.38
2023-08-29T11:35:49.757Z,6.13
2023-08-29T11:36:51.613Z,6.23
2023-08-29T11:37:53.468Z,6.72
2023-08-29T11:38:55.297Z,6.32
2023-08-29T11:39:57.084Z,6.44
2023-08-29T11:41:11.256Z,6.31
2023-08-29T11:42:09.837Z,6.67
2023-08-29T11:43:33.046Z,5.97
2023-08-29T11:44:22.674Z,6.30
2023-08-29T11:45:44.120Z,6.25
2023-08-29T11:46:18.032Z,6.48
2023-08-29T11:47:19.804Z,6.56
2023-08-29T11:48:21.661Z,6.39
2023-08-29T11:49:23.496Z,6.33
2023-08-29T11:50:25.384Z,6.19
2023-08-29T11:51:27.252Z,6.48
2023-08-29T11:52:29.089Z,6.35
2023-08-29T11:53:30.953Z,6.19
2023-08-29T11:54:32.783Z,6.29
2023-08-29T11:55:34.748Z,6.29
2023-08-29T11:56:36.597Z,6.47
2023-08-29T11:57:38.433Z,5.83
2023-08-29T11:58:40.265Z,6.91
2023-08-29T11:59:42.131Z,6.55
2023-08-29T12:00:44.026Z,6.56
2023-08-29T12:01:45.866Z,5.92
2023-08-29T12:02:47.762Z,6.04
2023-08-29T12:03:49.675Z,6.56
2023-08-29T12:04:51.454Z,6.89
2023-08-29T12:05:53.276Z,6.46
2023-08-29T12:06:55.115Z,7.06
2023-08-29T12:07:56.874Z,6.45
2023-08-29T12:09:00.244Z,6.76
2023-08-29T12:10:02.294Z,6.96
2023-08-29T12:11:04.177Z,6.62
2023-08-29T12:12:06.016Z,6.75
2023-08-29T12:13:07.870Z,6.87
2023-08-29T12:14:09.714Z,6.75
2023-08-29T12:15:11.626Z,6.46
2023-08-29T12:16:13.678Z,7.03
2023-08-29T12:17:15.650Z,6.65
2023-08-29T12:18:17.538Z,7.16
2023-08-29T12:19:19.338Z,6.59
2023-08-29T12:20:21.188Z,9.89
2023-08-29T12:21:23.092Z,8.67
2023-08-29T12:22:24.928Z,7.86
2023-08-29T12:23:26.783Z,7.26
2023-08-29T12:24:28.683Z,7.19
2023-08-29T12:25:30.562Z,7.06
2023-08-29T12:26:32.607Z,6.51
2023-08-29T12:27:34.761Z,6.53
2023-08-29T12:28:36.583Z,7.70
2023-08-29T12:29:38.348Z,6.41
2023-08-29T12:30:40.260Z,6.66
2023-08-29T12:31:42.054Z,7.11
2023-08-29T12:32:44.060Z,6.47
2023-08-29T12:33:46.070Z,6.83
2023-08-29T12:34:47.913Z,6.73
2023-08-29T12:35:49.765Z,7.24
2023-08-29T12:36:51.746Z,6.87
2023-08-29T12:37:53.617Z,7.46
2023-08-29T12:38:55.487Z,7.27
2023-08-29T12:39:57.324Z,7.17
2023-08-29T12:40:59.186Z,7.21
2023-08-29T12:42:01.058Z,7.25
2023-08-29T12:43:02.910Z,7.65
2023-08-29T12:44:04.768Z,6.78
2023-08-29T12:45:06.616Z,6.99
2023-08-29T12:46:08.504Z,6.83
2023-08-29T12:47:10.358Z,6.99
2023-08-29T12:48:12.264Z,6.97
2023-08-29T12:49:14.085Z,6.89
2023-08-29T12:50:16.190Z,7.58
2023-08-29T12:51:17.960Z,7.11
2023-08-29T12:52:19.817Z,7.49
2023-08-29T12:53:21.668Z,6.76
2023-08-29T12:54:23.429Z,7.06
2023-08-29T12:55:25.246Z,7.14
2023-08-29T12:56:27.099Z,7.23
2023-08-29T12:57:28.984Z,7.08
2023-08-29T12:58:30.836Z,7.00
2023-08-29T12:59:32.662Z,7.12
2023-08-29T13:00:34.709Z,7.25
2023-08-29T13:01:36.671Z,7.76
2023-08-29T13:02:38.774Z,7.20
2023-08-29T13:03:40.700Z,8.24
2023-08-29T13:04:42.651Z,7.29
2023-08-29T13:05:44.489Z,7.44
2023-08-29T13:06:46.336Z,7.20
2023-08-29T13:07:48.187Z,8.23
2023-08-29T13:08:50.033Z,7.11
2023-08-29T13:09:51.892Z,7.07
2023-08-29T13:10:53.779Z,8.44
2023-08-29T13:11:55.610Z,8.07
2023-08-29T13:12:57.482Z,7.05
2023-08-29T13:13:59.350Z,7.81
2023-08-29T13:15:01.151Z,7.77
2023-08-29T13:16:03.010Z,7.45
2023-08-29T13:17:04.841Z,7.16
2023-08-29T13:18:06.989Z,6.77
2023-08-29T13:19:08.976Z,8.21
2023-08-29T13:20:10.920Z,7.83
2023-08-29T13:21:12.748Z,6.75
2023-08-29T13:22:14.609Z,7.14
2023-08-29T13:23:16.486Z,7.65
2023-08-29T13:24:18.341Z,8.02
2023-08-29T13:25:20.205Z,7.29
2023-08-29T13:26:22.084Z,7.14